Time;durP1;ratioP1;P1;durP2;ratioP2;P2;SDS_P1;SDS_P2;PMS_P1;PMS_P2;Temp;Humidity;BMP_temperature;BMP_pressure;BME280_temperature;BME280_humidity;BME280_pressure;Samples;Min_cycle;Max_cycle;Signal;HPM_P1;HPM_P2
2021/01/13 00:00:24;;;;;;;49.75;16.15;;;0.10;99.90;;;;;;5028411;28;20055;-65
2021/01/13 00:02:52;;;;;;;47.05;13.90;;;0.10;99.90;;;;;;5031782;28;20072;-65
2021/01/13 00:05:19;;;;;;;38.90;13.48;;;0.10;99.90;;;;;;5031554;28;20049;-65
2021/01/13 00:07:49;;;;;;;51.38;15.50;;;0.10;99.90;;;;;;5019062;28;20045;-65
2021/01/13 00:10:16;;;;;;;55.60;17.23;;;0.10;99.90;;;;;;5024506;28;20034;-66
2021/01/13 00:12:43;;;;;;;48.58;14.13;;;0.10;99.90;;;;;;5030243;28;20045;-67
2021/01/13 00:15:10;;;;;;;52.42;16.02;;;0.10;99.90;;;;;;5026524;28;20113;-65
2021/01/13 00:17:37;;;;;;;40.75;15.32;;;0.10;99.90;;;;;;5031296;28;20064;-66
2021/01/13 00:20:05;;;;;;;46.92;15.75;;;0.00;99.90;;;;;;5027684;28;20055;-66
2021/01/13 00:22:32;;;;;;;54.50;16.65;;;0.00;99.90;;;;;;5014651;28;20562;-65
2021/01/13 00:24:58;;;;;;;54.33;18.33;;;0.10;99.90;;;;;;5008985;28;20686;-65
2021/01/13 00:27:25;;;;;;;48.35;16.92;;;0.10;99.90;;;;;;5032021;28;20065;-65
2021/01/13 00:29:53;;;;;;;46.42;15.27;;;0.10;99.90;;;;;;5014195;28;20055;-65
2021/01/13 00:32:19;;;;;;;48.10;13.63;;;0.10;99.90;;;;;;5030977;28;20136;-66
2021/01/13 00:34:47;;;;;;;52.65;18.42;;;0.10;99.90;;;;;;5030822;28;20045;-66
2021/01/13 00:37:14;;;;;;;52.60;15.45;;;0.10;99.90;;;;;;5032762;28;20425;-66
2021/01/13 00:39:41;;;;;;;47.45;15.68;;;0.10;99.90;;;;;;5030238;28;20084;-65
2021/01/13 00:42:08;;;;;;;48.97;15.23;;;0.10;99.90;;;;;;5018915;28;20120;-66
2021/01/13 00:44:35;;;;;;;46.65;15.55;;;0.10;99.90;;;;;;5029074;28;20041;-66
2021/01/13 00:47:02;;;;;;;49.30;16.65;;;0.10;99.90;;;;;;5030304;28;20042;-66
2021/01/13 00:49:29;;;;;;;56.33;16.80;;;0.10;99.90;;;;;;5031444;28;20038;-65
2021/01/13 00:51:55;;;;;;;51.67;18.33;;;0.10;99.90;;;;;;5028540;28;20041;-66
2021/01/13 00:54:22;;;;;;;53.85;17.35;;;0.10;99.90;;;;;;5031952;28;20041;-66
2021/01/13 00:56:50;;;;;;;50.63;16.10;;;0.10;99.90;;;;;;5031239;28;20484;-66
2021/01/13 00:59:17;;;;;;;47.30;15.63;;;0.10;99.90;;;;;;5031576;28;20037;-66
2021/01/13 01:01:46;;;;;;;46.00;15.70;;;0.10;99.90;;;;;;5014085;28;20103;-65
2021/01/13 01:04:13;;;;;;;48.28;16.98;;;0.10;99.90;;;;;;5030371;28;20479;-65
2021/01/13 01:06:40;;;;;;;53.38;17.77;;;0.10;99.90;;;;;;5032264;28;20385;-65
2021/01/13 01:09:08;;;;;;;51.85;16.35;;;0.10;99.90;;;;;;5013901;28;20079;-65
2021/01/13 01:11:37;;;;;;;54.45;16.67;;;0.10;99.90;;;;;;5028258;28;20038;-65
2021/01/13 01:14:05;;;;;;;58.67;18.20;;;0.10;99.90;;;;;;5028891;28;20475;-65
2021/01/13 01:16:33;;;;;;;53.25;16.55;;;0.10;99.90;;;;;;5025976;28;20037;-65
2021/01/13 01:19:00;;;;;;;52.63;16.80;;;0.10;99.90;;;;;;5029418;28;20043;-65
2021/01/13 01:21:27;;;;;;;49.22;16.27;;;0.00;99.90;;;;;;5031998;28;20081;-65
2021/01/13 01:23:54;;;;;;;51.38;17.35;;;0.10;99.90;;;;;;5034793;28;20038;-65
2021/01/13 01:26:21;;;;;;;45.80;15.90;;;0.10;99.90;;;;;;5013621;28;20128;-65
2021/01/13 01:28:48;;;;;;;55.53;18.80;;;0.10;99.90;;;;;;5030214;28;20124;-66
2021/01/13 01:31:15;;;;;;;53.95;16.73;;;0.10;99.90;;;;;;5024867;28;20556;-65
2021/01/13 01:33:43;;;;;;;50.78;18.73;;;0.10;99.90;;;;;;5024552;28;20050;-65
2021/01/13 01:36:10;;;;;;;46.53;16.52;;;0.10;99.90;;;;;;5029206;28;20056;-65
2021/01/13 01:38:37;;;;;;;50.75;17.50;;;0.10;99.90;;;;;;5029790;28;20135;-65
2021/01/13 01:41:06;;;;;;;56.08;19.52;;;0.10;99.90;;;;;;5026823;28;20065;-65
2021/01/13 01:43:32;;;;;;;47.50;17.17;;;0.10;99.90;;;;;;5038783;28;20037;-65
2021/01/13 01:46:04;;;;;;;46.00;16.35;;;0.20;99.90;;;;;;5029063;28;20041;-66
2021/01/13 01:48:50;;;;;;;55.67;18.67;;;0.20;99.90;;;;;;5022769;28;20505;-66
2021/01/13 01:51:24;;;;;;;46.40;16.23;;;0.20;99.90;;;;;;5025422;28;20112;-65
2021/01/13 01:54:15;;;;;;;56.15;18.15;;;0.20;99.90;;;;;;5030250;28;20144;-66
2021/01/13 01:56:43;;;;;;;61.92;17.95;;;0.20;99.90;;;;;;5028075;28;20057;-66
2021/01/13 01:59:15;;;;;;;49.00;17.80;;;0.30;99.90;;;;;;5032106;28;20404;-66
2021/01/13 02:01:51;;;;;;;45.90;17.48;;;0.20;99.90;;;;;;5024969;28;20046;-66
2021/01/13 02:04:28;;;;;;;52.88;17.13;;;0.30;99.90;;;;;;5034680;28;20092;-65
2021/01/13 02:06:58;;;;;;;48.90;16.02;;;0.30;99.90;;;;;;5033721;28;20046;-65
2021/01/13 02:09:28;;;;;;;55.38;19.42;;;0.30;99.90;;;;;;5024324;28;20037;-65
2021/01/13 02:11:58;;;;;;;50.55;17.65;;;0.40;99.90;;;;;;5031485;28;20045;-66
2021/01/13 02:14:26;;;;;;;47.97;16.88;;;0.40;99.90;;;;;;5035252;28;20041;-65
2021/01/13 02:16:55;;;;;;;51.58;17.15;;;0.40;99.90;;;;;;5033964;28;20037;-65
2021/01/13 02:19:46;;;;;;;49.53;16.85;;;0.40;99.90;;;;;;5033345;28;20504;-65
2021/01/13 02:22:18;;;;;;;51.15;15.75;;;0.40;99.90;;;;;;5032702;28;20140;-65
2021/01/13 02:25:15;;;;;;;47.28;16.92;;;0.40;99.90;;;;;;5025248;28;20041;-65
2021/01/13 02:28:12;;;;;;;45.72;15.82;;;0.40;99.90;;;;;;5021635;28;20052;-65
2021/01/13 02:30:43;;;;;;;46.08;15.43;;;0.50;99.90;;;;;;5033685;28;20049;-65
2021/01/13 02:33:21;;;;;;;50.75;16.23;;;0.50;99.90;;;;;;5032021;28;20558;-65
2021/01/13 02:36:16;;;;;;;51.33;17.17;;;0.40;99.90;;;;;;5032134;28;20053;-65
2021/01/13 02:38:48;;;;;;;48.13;15.57;;;0.40;99.90;;;;;;5032326;28;20542;-65
2021/01/13 02:41:20;;;;;;;51.60;17.25;;;0.40;99.90;;;;;;5033970;28;20041;-65
2021/01/13 02:43:56;;;;;;;44.65;16.85;;;0.40;99.90;;;;;;5033716;28;20045;-65
2021/01/13 02:46:34;;;;;;;49.83;15.57;;;0.40;99.90;;;;;;5030771;28;20045;-66
2021/01/13 02:49:02;;;;;;;47.83;16.23;;;0.40;99.90;;;;;;5029732;28;20037;-66
2021/01/13 02:51:30;;;;;;;53.03;16.58;;;0.30;99.90;;;;;;5034552;28;20038;-66
2021/01/13 02:54:15;;;;;;;60.47;17.63;;;0.30;99.90;;;;;;5035498;28;20045;-66
2021/01/13 02:56:43;;;;;;;55.78;16.08;;;0.30;99.90;;;;;;5030114;28;20611;-66
2021/01/13 02:59:12;;;;;;;50.95;17.23;;;0.30;99.90;;;;;;5013685;28;20045;-65
2021/01/13 03:01:41;;;;;;;46.63;15.93;;;0.30;99.90;;;;;;5035134;28;20392;-65
2021/01/13 03:04:08;;;;;;;42.88;15.00;;;0.40;99.90;;;;;;5027413;28;20074;-65
2021/01/13 03:06:37;;;;;;;45.80;15.35;;;0.40;99.90;;;;;;5013467;28;20042;-65
2021/01/13 03:09:09;;;;;;;49.63;16.48;;;0.30;99.90;;;;;;5021035;28;20041;-66
2021/01/13 03:11:37;;;;;;;49.73;15.33;;;0.30;99.90;;;;;;5030810;28;20048;-65
2021/01/13 03:14:18;;;;;;;46.03;15.98;;;0.30;99.90;;;;;;5032270;28;20095;-65
2021/01/13 03:16:53;;;;;;;39.60;14.30;;;0.30;99.90;;;;;;5029732;28;20045;-65
2021/01/13 03:19:28;;;;;;;39.40;13.57;;;0.30;99.90;;;;;;5022627;28;20099;-66
2021/01/13 03:22:00;;;;;;;37.72;12.98;;;0.50;99.90;;;;;;5022855;28;20065;-66
2021/01/13 03:24:53;;;;;;;42.58;14.13;;;0.50;99.90;;;;;;5026867;28;20036;-65
2021/01/13 03:27:22;;;;;;;41.60;13.33;;;0.40;99.90;;;;;;5026125;28;20041;-66
2021/01/13 03:29:52;;;;;;;39.42;13.35;;;0.40;99.90;;;;;;5014729;28;20084;-66
2021/01/13 03:32:28;;;;;;;44.22;13.85;;;0.30;99.90;;;;;;5030967;28;20049;-66
2021/01/13 03:35:00;;;;;;;42.85;15.00;;;0.20;99.90;;;;;;5032429;28;20033;-66
2021/01/13 03:37:45;;;;;;;39.47;13.65;;;0.20;99.90;;;;;;5024446;28;20038;-65
2021/01/13 03:40:15;;;;;;;42.92;13.48;;;0.30;99.90;;;;;;5006153;28;20503;-66
2021/01/13 03:42:51;;;;;;;36.15;13.15;;;0.30;99.90;;;;;;5016483;28;20492;-66
2021/01/13 03:45:39;;;;;;;37.13;12.90;;;0.40;99.90;;;;;;5034258;28;20047;-66
2021/01/13 03:48:17;;;;;;;38.97;14.27;;;0.40;99.90;;;;;;5030854;28;20133;-66
2021/01/13 03:50:46;;;;;;;36.42;13.52;;;0.50;99.90;;;;;;5031805;28;20042;-65
2021/01/13 03:53:16;;;;;;;47.22;14.27;;;0.50;99.90;;;;;;5033725;28;20117;-65
2021/01/13 03:55:44;;;;;;;38.47;13.15;;;0.40;99.90;;;;;;5029415;28;20088;-65
2021/01/13 03:58:24;;;;;;;37.75;13.10;;;0.30;99.90;;;;;;5031652;28;20056;-65
2021/01/13 04:01:01;;;;;;;33.22;11.95;;;0.30;99.90;;;;;;5030321;28;20053;-66
2021/01/13 04:03:43;;;;;;;41.05;13.15;;;0.30;99.90;;;;;;5030469;28;20123;-66
2021/01/13 04:06:13;;;;;;;38.30;13.52;;;0.40;99.90;;;;;;5027669;28;20041;-66
2021/01/13 04:08:45;;;;;;;29.15;12.27;;;0.40;99.90;;;;;;5023394;28;20038;-66
2021/01/13 04:11:20;;;;;;;39.30;13.93;;;0.30;99.90;;;;;;5028521;28;20037;-66
2021/01/13 04:13:53;;;;;;;44.67;13.55;;;0.30;99.90;;;;;;5031436;28;20611;-66
2021/01/13 04:16:21;;;;;;;42.17;14.07;;;0.20;99.90;;;;;;5024094;28;20053;-66
2021/01/13 04:18:51;;;;;;;41.20;13.13;;;0.20;99.90;;;;;;5033123;28;20499;-65
2021/01/13 04:21:20;;;;;;;35.28;13.27;;;0.20;99.90;;;;;;5028099;28;20057;-65
2021/01/13 04:23:47;;;;;;;36.58;12.55;;;0.20;99.90;;;;;;5032124;28;20047;-66
2021/01/13 04:26:14;;;;;;;42.25;14.45;;;0.20;99.90;;;;;;5021480;28;20060;-65
2021/01/13 04:28:42;;;;;;;44.08;16.92;;;0.10;99.90;;;;;;5031072;28;20444;-65
2021/01/13 04:31:09;;;;;;;52.78;17.90;;;0.00;99.90;;;;;;5027588;28;20057;-66
2021/01/13 04:33:36;;;;;;;45.92;18.00;;;0.00;99.90;;;;;;5011833;28;20052;-65
2021/01/13 04:36:04;;;;;;;45.25;15.15;;;-0.10;99.90;;;;;;5030744;28;20046;-65
2021/01/13 04:38:35;;;;;;;44.15;15.15;;;-0.20;99.90;;;;;;5029540;28;20044;-65
2021/01/13 04:41:14;;;;;;;32.58;11.48;;;-0.20;99.90;;;;;;5031893;28;20055;-65
2021/01/13 04:44:01;;;;;;;38.67;11.77;;;-0.20;99.90;;;;;;5032327;28;20056;-65
2021/01/13 04:46:33;;;;;;;38.45;12.88;;;-0.30;99.90;;;;;;5034831;28;20052;-65
2021/01/13 04:49:19;;;;;;;38.75;13.52;;;-0.30;99.90;;;;;;5024318;28;20061;-66
2021/01/13 04:51:47;;;;;;;39.78;13.60;;;-0.40;99.90;;;;;;5029626;28;20128;-65
2021/01/13 04:54:16;;;;;;;37.05;13.13;;;-0.50;99.90;;;;;;5029947;28;20053;-65
2021/01/13 04:56:42;;;;;;;50.95;17.40;;;-0.50;99.90;;;;;;5029475;28;20049;-65
2021/01/13 04:59:30;;;;;;;41.20;14.98;;;-0.50;99.90;;;;;;5030790;28;20060;-66
2021/01/13 05:02:11;;;;;;;53.00;15.40;;;-0.60;99.90;;;;;;5028169;28;20046;-65
2021/01/13 05:04:55;;;;;;;41.35;14.35;;;-0.60;99.90;;;;;;5032438;28;20033;-66
2021/01/13 05:07:37;;;;;;;60.63;19.90;;;-0.60;99.90;;;;;;5031694;28;20099;-65
2021/01/13 05:10:16;;;;;;;48.17;16.40;;;-0.50;99.90;;;;;;5031208;28;20045;-66
2021/01/13 05:12:48;;;;;;;65.00;19.98;;;-0.50;99.90;;;;;;5033093;28;20124;-66
2021/01/13 05:15:31;;;;;;;41.55;15.52;;;-0.50;99.90;;;;;;5013360;28;20050;-65
2021/01/13 05:17:58;;;;;;;33.40;11.82;;;-0.50;99.90;;;;;;5025691;28;20045;-65
2021/01/13 05:20:27;;;;;;;38.03;14.73;;;-0.60;99.90;;;;;;5029025;28;20049;-66
2021/01/13 05:22:54;;;;;;;52.25;15.50;;;-0.50;99.90;;;;;;5016125;28;20057;-66
2021/01/13 05:25:41;;;;;;;40.58;14.32;;;-0.60;99.90;;;;;;5032631;28;20116;-65
2021/01/13 05:28:09;;;;;;;45.33;15.98;;;-0.60;99.90;;;;;;5019470;28;20056;-66
2021/01/13 05:30:57;;;;;;;56.92;17.95;;;-0.60;99.90;;;;;;5010540;28;20038;-65
2021/01/13 05:33:26;;;;;;;40.90;13.80;;;-0.50;99.90;;;;;;5031727;28;20413;-65
2021/01/13 05:35:55;;;;;;;36.45;12.30;;;-0.50;99.90;;;;;;5035369;28;20053;-65
2021/01/13 05:38:55;;;;;;;18.02;7.47;;;-0.50;99.90;;;;;;5035319;28;20369;-65
2021/01/13 05:41:26;;;;;;;14.18;4.68;;;-0.40;99.90;;;;;;5026189;28;20407;-66
2021/01/13 05:43:53;;;;;;;11.52;4.40;;;-0.20;99.90;;;;;;5033398;28;20037;-65
2021/01/13 05:46:20;;;;;;;8.20;3.45;;;0.00;99.90;;;;;;5033649;28;20050;-66
2021/01/13 05:48:53;;;;;;;10.05;3.75;;;0.10;99.90;;;;;;5027877;28;20037;-66
2021/01/13 05:51:29;;;;;;;11.27;4.10;;;0.20;99.90;;;;;;5030893;28;20056;-65
2021/01/13 05:53:57;;;;;;;6.00;2.35;;;0.20;99.90;;;;;;5034522;28;20056;-65
2021/01/13 05:56:24;;;;;;;7.82;2.28;;;0.30;99.90;;;;;;5035136;28;20049;-66
2021/01/13 05:59:00;;;;;;;4.93;2.13;;;0.50;99.90;;;;;;5027766;28;20048;-65
2021/01/13 06:01:39;;;;;;;5.88;2.30;;;0.60;99.90;;;;;;5030085;28;20049;-65
2021/01/13 06:04:06;;;;;;;10.57;3.65;;;0.60;99.90;;;;;;5035289;28;20112;-66
2021/01/13 06:06:44;;;;;;;7.63;3.90;;;0.70;99.90;;;;;;5031636;28;20042;-66
2021/01/13 06:09:12;;;;;;;8.07;3.75;;;0.70;99.90;;;;;;5027372;28;20037;-65
2021/01/13 06:11:46;;;;;;;9.90;2.88;;;0.80;99.90;;;;;;5035590;28;20458;-65
2021/01/13 06:14:25;;;;;;;9.57;2.83;;;0.80;99.90;;;;;;5034588;28;20037;-65
2021/01/13 06:16:53;;;;;;;10.82;2.25;;;0.90;99.90;;;;;;5032496;28;20416;-65
2021/01/13 06:19:21;;;;;;;6.38;1.95;;;1.00;99.90;;;;;;5039677;28;20049;-65
2021/01/13 06:22:05;;;;;;;4.38;1.55;;;1.00;99.90;;;;;;5021220;28;20045;-65
2021/01/13 06:24:36;;;;;;;3.25;1.15;;;1.10;99.90;;;;;;5032439;28;20405;-65
2021/01/13 06:27:13;;;;;;;6.72;1.60;;;1.20;99.90;;;;;;5034039;28;20038;-65
2021/01/13 06:29:49;;;;;;;3.70;1.25;;;1.20;99.90;;;;;;5027115;28;20045;-65
2021/01/13 06:32:18;;;;;;;5.22;1.92;;;1.30;99.90;;;;;;5031833;28;20034;-65
2021/01/13 06:34:57;;;;;;;5.53;1.48;;;1.30;99.90;;;;;;5029170;28;20052;-65
2021/01/13 06:37:37;;;;;;;5.03;1.67;;;1.40;99.90;;;;;;5018121;28;20057;-65
2021/01/13 06:40:14;;;;;;;6.38;2.00;;;1.40;99.90;;;;;;5031461;28;20436;-65
2021/01/13 06:42:41;;;;;;;;;;;1.40;99.90;;;;;;5030793;28;20033;-66
2021/01/13 06:45:09;;;;;;;7.47;2.30;;;1.40;99.90;;;;;;5029561;28;19929;-66
2021/01/13 06:47:36;;;;;;;4.75;1.60;;;1.40;99.90;;;;;;5031651;28;20508;-65
2021/01/13 06:50:04;;;;;;;5.68;2.08;;;1.40;99.90;;;;;;5034748;28;20045;-65
2021/01/13 06:52:33;;;;;;;3.20;1.50;;;1.50;99.90;;;;;;5021091;28;20034;-65
2021/01/13 06:55:00;;;;;;;5.68;1.42;;;1.50;99.90;;;;;;5032094;28;20049;-65
2021/01/13 06:57:31;;;;;;;5.40;1.35;;;1.50;99.90;;;;;;5030494;28;20045;-65
2021/01/13 06:59:58;;;;;;;4.35;1.13;;;1.50;99.90;;;;;;5020355;28;20042;-66
2021/01/13 07:02:33;;;;;;;2.85;1.50;;;1.50;99.90;;;;;;5030155;28;20038;-66
2021/01/13 07:05:01;;;;;;;4.53;1.52;;;1.50;99.90;;;;;;5026245;28;20160;-65
2021/01/13 07:07:29;;;;;;;4.40;2.10;;;1.50;99.90;;;;;;5030803;28;20095;-66
2021/01/13 07:09:57;;;;;;;5.18;1.85;;;1.50;99.90;;;;;;5002092;28;20037;-66
2021/01/13 07:12:25;;;;;;;7.47;1.48;;;1.50;99.90;;;;;;5030038;28;20033;-66
2021/01/13 07:14:55;;;;;;;5.00;0.88;;;1.50;99.90;;;;;;5014064;28;20053;-66
2021/01/13 07:17:29;;;;;;;7.22;1.23;;;1.70;99.90;;;;;;5030894;28;20037;-66
2021/01/13 07:19:57;;;;;;;3.40;1.17;;;1.80;99.90;;;;;;5030144;28;20044;-66
2021/01/13 07:22:25;;;;;;;3.67;1.20;;;1.80;99.90;;;;;;5034744;28;20041;-66
2021/01/13 07:24:53;;;;;;;5.35;1.67;;;1.80;99.90;;;;;;5030104;28;20052;-66
2021/01/13 07:27:20;;;;;;;7.25;1.80;;;1.90;99.90;;;;;;5022727;28;20045;-66
2021/01/13 07:29:51;;;;;;;3.83;1.40;;;1.90;99.90;;;;;;5028937;28;20043;-66
2021/01/13 07:32:23;;;;;;;3.97;1.40;;;2.00;99.90;;;;;;5037480;28;20041;-66
2021/01/13 07:34:54;;;;;;;4.88;1.85;;;2.00;99.90;;;;;;5017537;28;20058;-65
2021/01/13 07:37:23;;;;;;;10.27;2.83;;;2.00;99.90;;;;;;5009012;28;20069;-65
2021/01/13 07:40:22;;;;;;;17.55;5.50;;;2.10;98.80;;;;;;5028813;28;20132;-66
2021/01/13 07:43:01;;;;;;;23.38;7.20;;;2.20;98.50;;;;;;5026641;28;20065;-65
2021/01/13 07:45:30;;;;;;;11.90;4.70;;;2.30;97.30;;;;;;5024282;28;20037;-64
2021/01/13 07:47:56;;;;;;;28.40;11.35;;;2.30;97.50;;;;;;5029761;28;20037;-65
2021/01/13 07:50:24;;;;;;;5.20;2.45;;;2.40;97.10;;;;;;5020118;28;20057;-65
2021/01/13 07:52:52;;;;;;;9.32;4.07;;;2.50;95.90;;;;;;5015091;28;20500;-65
2021/01/13 07:55:23;;;;;;;6.60;2.42;;;2.50;95.70;;;;;;5013652;28;20061;-65
2021/01/13 07:57:51;;;;;;;3.13;1.65;;;2.60;94.70;;;;;;5016699;28;20051;-66
2021/01/13 08:00:31;;;;;;;5.18;1.45;;;2.70;93.10;;;;;;5017638;28;20099;-66
2021/01/13 08:04:03;;;;;;;21.27;10.15;;;2.80;93.90;;;;;;5003551;28;20046;-65
2021/01/13 08:06:34;;;;;;;9.15;4.30;;;2.90;93.60;;;;;;5023394;28;20053;-64
2021/01/13 08:09:13;;;;;;;3.38;1.23;;;3.00;92.30;;;;;;5018630;28;20576;-65
2021/01/13 08:12:03;;;;;;;4.57;1.27;;;3.10;91.80;;;;;;5021797;28;20052;-65
2021/01/13 08:14:48;;;;;;;3.53;1.23;;;3.20;91.50;;;;;;5010527;28;20083;-66
2021/01/13 08:17:50;;;;;;;4.53;1.33;;;3.30;90.70;;;;;;5006229;28;20060;-64
2021/01/13 08:20:39;;;;;;;4.70;1.58;;;3.40;90.20;;;;;;4996966;28;20072;-64
2021/01/13 08:23:17;;;;;;;2.75;1.17;;;3.50;89.60;;;;;;4999060;28;20049;-64
2021/01/13 08:26:03;;;;;;;3.40;1.45;;;3.60;89.00;;;;;;5002688;28;20038;-64
2021/01/13 08:28:40;;;;;;;2.20;0.93;;;3.70;87.70;;;;;;5007562;28;20048;-64
2021/01/13 08:31:08;;;;;;;9.50;2.28;;;3.80;88.40;;;;;;5017824;28;20544;-64
2021/01/13 08:33:39;;;;;;;7.82;2.63;;;3.90;86.90;;;;;;5021853;28;20057;-64
2021/01/13 08:36:13;;;;;;;5.57;2.67;;;3.90;84.80;;;;;;5006542;28;20060;-65
2021/01/13 08:39:14;;;;;;;12.57;3.95;;;3.90;85.20;;;;;;5025309;28;20069;-64
2021/01/13 08:41:43;;;;;;;16.10;5.82;;;4.00;84.20;;;;;;5036259;28;20982;-64
2021/01/13 08:44:18;;;;;;;12.90;4.75;;;4.10;84.20;;;;;;5015725;28;20049;-63
2021/01/13 08:47:01;;;;;;;4.78;1.42;;;4.20;84.00;;;;;;5024695;28;20046;-62
2021/01/13 08:49:29;;;;;;;4.38;1.13;;;4.30;86.60;;;;;;5021904;28;20041;-63
2021/01/13 08:52:11;;;;;;;2.22;1.02;;;4.40;84.70;;;;;;5016010;28;20091;-63
2021/01/13 08:54:42;;;;;;;3.70;1.30;;;4.40;82.30;;;;;;5014211;28;20057;-62
2021/01/13 08:57:11;;;;;;;3.88;0.93;;;4.40;81.80;;;;;;5016395;28;20049;-62
2021/01/13 08:59:43;;;;;;;5.97;1.23;;;4.40;81.20;;;;;;5038012;28;20061;-62
2021/01/13 09:02:12;;;;;;;2.87;1.00;;;4.50;81.40;;;;;;5023196;28;20045;-62
2021/01/13 09:04:53;;;;;;;2.95;0.43;;;4.60;79.70;;;;;;5021099;28;20045;-62
2021/01/13 09:07:24;;;;;;;4.22;1.00;;;4.70;79.30;;;;;;5018067;28;20495;-63
2021/01/13 09:10:00;;;;;;;2.20;0.50;;;4.70;79.50;;;;;;5025219;28;20398;-63
2021/01/13 09:12:44;;;;;;;2.15;0.40;;;4.80;79.60;;;;;;5024722;28;20592;-62
2021/01/13 09:15:19;;;;;;;3.10;0.88;;;4.90;79.70;;;;;;5025998;28;20037;-63
2021/01/13 09:17:58;;;;;;;2.25;0.73;;;4.90;78.40;;;;;;5023693;28;20049;-63
2021/01/13 09:20:32;;;;;;;2.78;0.70;;;5.00;78.50;;;;;;5020681;28;20124;-62
2021/01/13 09:23:02;;;;;;;3.30;0.60;;;5.00;77.50;;;;;;5024376;28;20059;-62
2021/01/13 09:25:29;;;;;;;4.78;0.77;;;5.20;79.00;;;;;;5026882;28;20048;-65
2021/01/13 09:28:03;;;;;;;1.65;0.50;;;5.40;77.20;;;;;;5025429;28;20153;-63
2021/01/13 09:30:29;;;;;;;;;;;5.50;77.60;;;;;;5024453;28;20045;-63
2021/01/13 09:32:57;;;;;;;3.40;0.60;;;5.60;76.20;;;;;;5030705;28;20380;-63
2021/01/13 09:35:32;;;;;;;1.77;0.40;;;5.50;75.50;;;;;;5029061;28;20080;-63
2021/01/13 09:38:06;;;;;;;2.35;1.00;;;5.40;74.90;;;;;;5028227;28;20041;-62
2021/01/13 09:41:08;;;;;;;3.90;0.90;;;5.40;76.20;;;;;;5032337;28;20491;-63
2021/01/13 09:43:38;;;;;;;2.28;0.88;;;5.30;73.80;;;;;;5031167;28;20068;-63
2021/01/13 09:46:21;;;;;;;6.38;1.00;;;5.20;76.20;;;;;;5016123;28;20111;-63
2021/01/13 09:49:05;;;;;;;2.88;0.80;;;5.20;75.40;;;;;;5025540;28;20457;-64
2021/01/13 09:51:34;;;;;;;2.20;0.65;;;5.30;76.40;;;;;;5025477;28;20493;-63
2021/01/13 09:54:03;;;;;;;4.65;0.80;;;5.40;76.10;;;;;;5021209;28;20052;-63
2021/01/13 09:56:31;;;;;;;1.73;0.43;;;5.50;76.60;;;;;;5028213;28;20133;-63
2021/01/13 09:59:02;;;;;;;1.75;0.60;;;5.50;75.70;;;;;;5027448;28;20037;-63
2021/01/13 10:01:37;;;;;;;3.45;0.90;;;5.50;76.10;;;;;;5030583;28;20123;-63
2021/01/13 10:04:10;;;;;;;2.38;0.70;;;5.50;75.50;;;;;;5027417;28;20555;-63
2021/01/13 10:06:42;;;;;;;6.05;2.17;;;5.50;76.80;;;;;;5028827;28;20045;-63
2021/01/13 10:09:21;;;;;;;4.68;0.65;;;5.50;75.50;;;;;;5029475;28;20038;-63
2021/01/13 10:11:54;;;;;;;2.83;0.85;;;5.50;76.20;;;;;;5028853;28;20042;-64
2021/01/13 10:14:22;;;;;;;4.75;0.90;;;5.50;75.70;;;;;;5028086;28;20045;-64
2021/01/13 10:16:49;;;;;;;3.70;1.42;;;5.60;75.70;;;;;;5013351;28;20060;-64
2021/01/13 10:19:17;;;;;;;3.70;1.20;;;5.70;74.60;;;;;;5023356;28;20034;-64
2021/01/13 10:21:48;;;;;;;3.10;0.98;;;5.60;74.90;;;;;;5030718;28;20049;-64
2021/01/13 10:24:17;;;;;;;3.42;0.95;;;5.70;74.20;;;;;;5031640;28;20061;-64
2021/01/13 10:26:49;;;;;;;3.67;1.05;;;5.70;73.80;;;;;;5032208;28;20053;-64
2021/01/13 10:29:23;;;;;;;1.85;0.82;;;5.70;73.80;;;;;;5030019;28;20099;-64
2021/01/13 10:31:51;;;;;;;2.92;0.80;;;5.80;73.20;;;;;;5028864;28;20820;-63
2021/01/13 10:34:19;;;;;;;2.63;0.77;;;5.60;73.20;;;;;;5028583;28;20064;-63
2021/01/13 10:36:49;;;;;;;3.92;0.90;;;5.70;72.90;;;;;;5027280;28;20088;-63
2021/01/13 10:39:16;;;;;;;2.85;0.30;;;5.80;72.90;;;;;;5017623;28;20121;-63
2021/01/13 10:41:47;;;;;;;2.75;0.50;;;5.90;72.40;;;;;;5032996;28;20049;-63
2021/01/13 10:44:18;;;;;;;5.20;0.65;;;5.70;72.40;;;;;;5029290;28;20064;-63
2021/01/13 10:46:46;;;;;;;3.25;0.73;;;5.80;72.80;;;;;;5028867;28;20038;-63
2021/01/13 10:49:35;;;;;;;1.92;0.40;;;6.10;72.20;;;;;;5014888;28;20045;-63
2021/01/13 10:52:08;;;;;;;2.47;0.80;;;6.20;72.90;;;;;;5024029;28;20053;-63
2021/01/13 10:54:41;;;;;;;4.78;0.50;;;6.20;72.20;;;;;;5028149;28;20041;-63
2021/01/13 10:57:09;;;;;;;4.57;1.10;;;6.30;71.60;;;;;;5026934;28;20049;-63
2021/01/13 10:59:37;;;;;;;4.45;1.45;;;6.00;71.60;;;;;;5027170;28;20046;-63
2021/01/13 11:02:12;;;;;;;3.33;1.25;;;5.70;73.50;;;;;;5011668;28;20103;-63
2021/01/13 11:04:41;;;;;;;4.28;1.30;;;5.70;73.30;;;;;;5027740;28;20045;-63
2021/01/13 11:07:18;;;;;;;1.98;0.50;;;6.00;73.10;;;;;;5030334;28;20049;-63
2021/01/13 11:09:50;;;;;;;1.85;0.65;;;6.30;71.80;;;;;;5007780;28;20128;-63
2021/01/13 11:12:23;;;;;;;1.98;0.52;;;6.70;71.50;;;;;;5027945;28;20072;-63
2021/01/13 11:14:51;;;;;;;5.60;0.52;;;6.80;70.60;;;;;;5009666;28;20045;-63
2021/01/13 11:17:26;;;;;;;4.10;0.35;;;6.60;69.40;;;;;;5024952;28;20033;-63
2021/01/13 11:19:52;;;;;;;6.50;0.88;;;6.50;69.90;;;;;;5020256;28;20140;-63
2021/01/13 11:22:21;;;;;;;2.28;0.30;;;6.80;70.50;;;;;;5026752;28;20054;-63
2021/01/13 11:24:49;;;;;;;1.23;0.32;;;6.90;70.10;;;;;;5026909;28;20136;-63
2021/01/13 11:27:19;;;;;;;2.78;0.40;;;7.20;68.70;;;;;;5021682;28;20512;-63
2021/01/13 11:29:55;;;;;;;5.50;0.68;;;7.30;68.30;;;;;;5009374;28;20045;-63
2021/01/13 11:32:29;;;;;;;7.40;0.65;;;7.40;66.70;;;;;;5013778;28;20041;-63
2021/01/13 11:34:57;;;;;;;2.40;0.50;;;7.20;67.70;;;;;;5025626;28;20164;-64
2021/01/13 11:37:26;;;;;;;3.55;0.88;;;7.20;67.60;;;;;;5020694;28;20049;-64
2021/01/13 11:40:28;;;;;;;1.83;0.30;;;7.10;68.00;;;;;;5028972;28;20052;-64
2021/01/13 11:43:14;;;;;;;0.88;0.25;;;7.10;67.70;;;;;;5020258;28;20077;-64
2021/01/13 11:45:48;;;;;;;3.92;0.55;;;6.80;67.30;;;;;;5022459;28;20065;-63
2021/01/13 11:48:24;;;;;;;2.53;0.45;;;6.60;68.70;;;;;;5030516;28;20038;-63
2021/01/13 11:50:59;;;;;;;2.72;0.68;;;6.90;68.40;;;;;;5025052;28;20065;-64
2021/01/13 11:53:30;;;;;;;10.63;0.75;;;6.70;67.10;;;;;;5020051;28;20072;-64
2021/01/13 11:56:03;;;;;;;3.80;0.30;;;6.80;68.20;;;;;;5021305;28;20049;-63
2021/01/13 11:58:31;;;;;;;;;;;6.90;66.70;;;;;;5023188;28;20057;-64
2021/01/13 12:00:57;;;;;;;2.95;0.60;;;7.00;68.30;;;;;;5023657;28;19929;-64
2021/01/13 12:03:24;;;;;;;1.40;0.40;;;7.10;66.10;;;;;;5020304;28;20038;-64
2021/01/13 12:05:51;;;;;;;2.00;0.20;;;7.40;66.10;;;;;;5021969;28;20048;-64
2021/01/13 12:08:17;;;;;;;2.45;0.30;;;7.50;64.40;;;;;;5023142;28;20064;-63
2021/01/13 12:10:49;;;;;;;6.75;0.75;;;7.30;65.30;;;;;;5021251;28;20104;-63
2021/01/13 12:13:17;;;;;;;3.08;0.68;;;7.20;65.80;;;;;;5023814;28;20052;-63
2021/01/13 12:16:06;;;;;;;2.60;0.90;;;6.90;65.80;;;;;;5019089;28;20107;-63
2021/01/13 12:18:44;;;;;;;2.95;0.55;;;7.00;65.50;;;;;;5023079;28;20060;-63
2021/01/13 12:21:14;;;;;;;2.95;1.17;;;6.50;66.20;;;;;;5023459;28;20144;-63
2021/01/13 12:23:42;;;;;;;1.30;0.40;;;6.40;67.80;;;;;;5019311;28;20092;-64
2021/01/13 12:26:22;;;;;;;1.60;0.73;;;6.50;67.30;;;;;;5023574;28;20620;-64
2021/01/13 12:28:54;;;;;;;4.15;0.60;;;6.20;68.10;;;;;;5024506;28;20038;-63
2021/01/13 12:31:21;;;;;;;1.38;0.45;;;6.00;69.30;;;;;;5009361;28;20189;-63
2021/01/13 12:33:58;;;;;;;3.72;0.52;;;5.90;69.60;;;;;;5022922;28;20049;-63
2021/01/13 12:36:46;;;;;;;3.08;0.98;;;6.00;68.70;;;;;;5023590;28;20041;-63
2021/01/13 12:39:27;;;;;;;4.75;0.50;;;5.90;68.30;;;;;;5024358;28;20053;-63
2021/01/13 12:41:54;;;;;;;3.17;0.40;;;5.60;69.00;;;;;;5021798;28;20042;-63
2021/01/13 12:44:22;;;;;;;0.93;0.20;;;5.70;70.20;;;;;;5017483;28;20045;-63
2021/01/13 12:46:57;;;;;;;2.28;0.30;;;5.80;70.10;;;;;;5024722;28;20041;-63
2021/01/13 12:49:25;;;;;;;2.05;0.30;;;5.80;69.00;;;;;;5018977;28;20477;-64
2021/01/13 12:51:56;;;;;;;2.35;0.30;;;5.60;69.00;;;;;;5020503;28;20045;-63
2021/01/13 12:54:23;;;;;;;2.20;0.40;;;5.50;68.90;;;;;;5027089;28;20045;-63
2021/01/13 12:56:51;;;;;;;0.93;0.30;;;5.70;69.10;;;;;;5042575;28;20109;-63
2021/01/13 12:59:17;;;;;;;0.50;0.10;;;5.70;69.40;;;;;;5029093;28;20045;-63
2021/01/13 13:01:47;;;;;;;4.40;0.95;;;5.60;67.30;;;;;;5023718;28;20037;-63
2021/01/13 13:04:14;;;;;;;2.13;0.40;;;5.40;68.10;;;;;;5024517;28;20519;-64
2021/01/13 13:06:42;;;;;;;4.60;0.20;;;5.40;68.40;;;;;;5023817;28;20547;-63
2021/01/13 13:09:15;;;;;;;2.67;0.10;;;5.30;69.30;;;;;;5021167;28;20092;-63
2021/01/13 13:11:46;;;;;;;3.85;0.32;;;5.20;68.60;;;;;;5002370;28;20045;-63
2021/01/13 13:14:12;;;;;;;6.25;0.65;;;5.10;69.60;;;;;;5025599;28;20045;-63
2021/01/13 13:16:40;;;;;;;2.33;0.43;;;5.00;69.50;;;;;;5023651;28;20042;-64